Time;durP1;ratioP1;P1;durP2;ratioP2;P2;SDS_P1;SDS_P2;PMS_P1;PMS_P2;Temp;Humidity;BMP_temperature;BMP_pressure;BME280_temperature;BME280_humidity;BME280_pressure;Samples;Min_cycle;Max_cycle;Signal;HPM_P1;HPM_P2
2023/10/07 00:01:22;;;;;;;11.07;3.70;;;;;;;;;;4932639;28;99313;-82
2023/10/07 00:03:51;;;;;;;8.73;3.17;;;;;;;;;;4938962;28;98926;-79
2023/10/07 00:06:19;;;;;;;9.30;3.28;;;;;;;;;;4957868;28;104552;-80
2023/10/07 00:08:45;;;;;;;12.43;3.83;;;;;;;;;;4957493;28;98532;-81
2023/10/07 00:11:13;;;;;;;11.10;2.90;;;;;;;;;;4953234;28;98982;-82
2023/10/07 00:13:42;;;;;;;8.18;3.08;;;;;;;;;;4955519;28;99116;-83
2023/10/07 00:16:17;;;;;;;10.25;3.08;;;;;;;;;;4953410;28;98754;-83
2023/10/07 00:18:45;;;;;;;10.23;3.10;;;;;;;;;;4963921;28;99434;-83
2023/10/07 00:21:23;;;;;;;11.35;3.28;;;;;;;;;;4984058;28;100730;-82
2023/10/07 00:23:52;;;;;;;9.25;3.13;;;;;;;;;;4967040;28;97519;-81
2023/10/07 00:26:19;;;;;;;11.35;3.30;;;;;;;;;;4952965;28;100022;-82
2023/10/07 00:29:00;;;;;;;9.13;2.92;;;;;;;;;;4966189;28;98533;-83
2023/10/07 00:31:32;;;;;;;13.52;4.03;;;;;;;;;;4958187;28;99244;-82
2023/10/07 00:34:05;;;;;;;9.25;3.22;;;;;;;;;;4953317;28;100362;-81
2023/10/07 00:39:08;;;;;;;10.77;3.42;;;;;;;;;;4953368;28;99139;-80
2023/10/07 00:42:10;;;;;;;10.85;3.13;;;;;;;;;;4945091;28;100904;-83
2023/10/07 00:44:35;;;;;;;11.50;3.28;;;;;;;;;;4936601;28;98708;-83
2023/10/07 00:49:39;;;;;;;10.40;3.42;;;;;;;;;;4945731;28;98183;-83
2023/10/07 00:52:22;;;;;;;11.00;3.15;;;;;;;;;;4948700;28;98794;-83
2023/10/07 00:57:34;;;;;;;9.52;2.97;;;;;;;;;;4946157;28;99677;-83
2023/10/07 01:02:51;;;;;;;11.25;3.60;;;;;;;;;;4946704;28;99199;-83
2023/10/07 01:05:27;;;;;;;11.27;3.50;;;;;;;;;;4961308;28;98703;-83
2023/10/07 01:07:55;;;;;;;12.60;4.10;;;;;;;;;;4945007;28;99150;-83
2023/10/07 01:10:27;;;;;;;12.57;3.58;;;;;;;;;;4966137;28;99351;-83
2023/10/07 01:12:59;;;;;;;10.73;3.60;;;;;;;;;;4933121;28;101586;-83
2023/10/07 01:15:26;;;;;;;11.23;3.45;;;;;;;;;;4931695;28;98319;-82
2023/10/07 01:18:05;;;;;;;10.38;3.30;;;;;;;;;;4944229;28;98584;-82
2023/10/07 01:20:35;;;;;;;10.65;3.33;;;;;;;;;;4951777;28;101718;-84
2023/10/07 01:23:07;;;;;;;11.80;3.53;;;;;;;;;;4949836;28;100140;-82
2023/10/07 01:25:43;;;;;;;13.05;3.72;;;;;;;;;;4959988;28;99143;-82
2023/10/07 01:28:14;;;;;;;11.20;3.60;;;;;;;;;;4945434;28;99880;-81
2023/10/07 01:30:47;;;;;;;11.05;3.70;;;;;;;;;;4948335;28;99590;-81
2023/10/07 01:33:34;;;;;;;13.52;4.05;;;;;;;;;;4951144;28;98588;-82
2023/10/07 01:36:35;;;;;;;13.23;4.32;;;;;;;;;;4938381;28;99231;-81
2023/10/07 01:38:55;;;;;;;11.60;4.05;;;;;;;;;;4943427;28;99444;-82
2023/10/07 01:41:27;;;;;;;12.55;3.72;;;;;;;;;;4944417;28;99872;-82
2023/10/07 01:44:00;;;;;;;9.13;3.50;;;;;;;;;;4940886;28;99791;-82
2023/10/07 01:46:28;;;;;;;13.00;3.90;;;;;;;;;;4946311;28;98430;-81
2023/10/07 01:49:01;;;;;;;11.23;3.83;;;;;;;;;;4945484;28;100307;-82
2023/10/07 01:51:29;;;;;;;12.43;3.90;;;;;;;;;;4949351;28;100170;-82
2023/10/07 01:53:56;;;;;;;;;;;;;;;;;;4945974;28;100495;-83
2023/10/07 01:56:26;;;;;;;8.23;2.97;;;;;;;;;;4963898;28;113057;-81
2023/10/07 02:01:50;;;;;;;10.88;3.15;;;;;;;;;;4944160;28;101525;-81
2023/10/07 02:04:18;;;;;;;11.73;3.85;;;;;;;;;;4945064;28;103594;-82
2023/10/07 02:06:54;;;;;;;13.30;4.15;;;;;;;;;;4945506;28;97896;-82
2023/10/07 02:09:27;;;;;;;11.50;3.92;;;;;;;;;;4940486;28;98667;-80
2023/10/07 02:11:54;;;;;;;9.90;3.17;;;;;;;;;;4965677;28;102435;-81
2023/10/07 02:14:24;;;;;;;14.57;4.20;;;;;;;;;;4923657;28;99633;-81
2023/10/07 02:16:52;;;;;;;11.00;3.65;;;;;;;;;;4921601;28;101457;-81
2023/10/07 02:19:27;;;;;;;10.82;3.17;;;;;;;;;;4922254;28;102157;-81
2023/10/07 02:21:59;;;;;;;13.32;4.10;;;;;;;;;;4944281;28;99267;-81
2023/10/07 02:24:29;;;;;;;14.85;3.85;;;;;;;;;;4923254;28;100194;-82
2023/10/07 02:27:07;;;;;;;11.30;3.17;;;;;;;;;;4926710;28;98598;-82
2023/10/07 02:29:34;;;;;;;10.00;3.35;;;;;;;;;;4924319;28;99023;-81
2023/10/07 02:32:14;;;;;;;12.57;3.45;;;;;;;;;;4925906;28;98641;-82
2023/10/07 02:34:54;;;;;;;12.05;3.10;;;;;;;;;;4926406;28;98671;-82
2023/10/07 02:37:25;;;;;;;10.15;3.65;;;;;;;;;;4925907;28;100153;-81
2023/10/07 02:40:18;;;;;;;8.55;3.05;;;;;;;;;;4936665;28;102727;-82
2023/10/07 02:42:46;;;;;;;10.55;3.40;;;;;;;;;;4930217;28;98937;-81
2023/10/07 02:45:28;;;;;;;9.82;3.22;;;;;;;;;;4943713;28;101914;-81
2023/10/07 02:48:00;;;;;;;9.32;3.70;;;;;;;;;;4925065;28;98671;-80
2023/10/07 02:50:31;;;;;;;12.30;4.22;;;;;;;;;;4946673;28;98641;-81
2023/10/07 02:53:01;;;;;;;11.90;3.63;;;;;;;;;;4939987;28;99769;-81
2023/10/07 02:55:37;;;;;;;10.88;3.70;;;;;;;;;;4945176;28;98683;-81
2023/10/07 02:58:05;;;;;;;13.23;3.30;;;;;;;;;;4944580;28;99023;-81
2023/10/07 03:00:35;;;;;;;11.85;3.95;;;;;;;;;;4935193;28;99120;-83
2023/10/07 03:03:19;;;;;;;13.18;4.22;;;;;;;;;;4947808;28;99402;-80
2023/10/07 03:05:57;;;;;;;11.52;3.80;;;;;;;;;;4944387;28;100077;-81
2023/10/07 03:08:40;;;;;;;12.13;3.95;;;;;;;;;;4922567;28;98753;-82
2023/10/07 03:11:12;;;;;;;12.05;3.80;;;;;;;;;;4928392;28;100155;-81
2023/10/07 03:13:39;;;;;;;11.65;3.47;;;;;;;;;;4923463;28;100610;-82
2023/10/07 03:16:10;;;;;;;10.20;3.50;;;;;;;;;;4921144;28;98503;-80
2023/10/07 03:18:38;;;;;;;14.13;4.13;;;;;;;;;;4924255;28;100086;-81
2023/10/07 03:21:11;;;;;;;12.48;3.78;;;;;;;;;;4921584;28;99976;-80
2023/10/07 03:23:45;;;;;;;13.63;4.20;;;;;;;;;;4956883;28;99536;-81
2023/10/07 03:26:14;;;;;;;12.00;3.90;;;;;;;;;;4933431;28;99405;-81
2023/10/07 03:28:51;;;;;;;11.50;3.83;;;;;;;;;;4931161;28;98955;-81
2023/10/07 03:31:20;;;;;;;9.75;3.25;;;;;;;;;;4931741;28;99773;-81
2023/10/07 03:33:51;;;;;;;10.40;3.35;;;;;;;;;;4934981;28;99724;-81
2023/10/07 03:38:55;;;;;;;11.90;3.95;;;;;;;;;;4928192;28;98984;-82
2023/10/07 03:41:22;;;;;;;11.70;3.10;;;;;;;;;;4934864;28;98538;-81
2023/10/07 03:43:50;;;;;;;11.77;4.10;;;;;;;;;;4933995;28;99039;-81
2023/10/07 03:46:17;;;;;;;10.52;3.72;;;;;;;;;;4934914;28;103903;-82
2023/10/07 03:48:53;;;;;;;12.38;4.10;;;;;;;;;;4949515;28;98866;-81
2023/10/07 03:51:22;;;;;;;10.88;3.80;;;;;;;;;;4951521;28;103768;-81
2023/10/07 03:53:51;;;;;;;11.55;3.75;;;;;;;;;;4950107;28;99428;-81
2023/10/07 03:56:20;;;;;;;12.20;4.00;;;;;;;;;;4933562;28;99234;-80
2023/10/07 03:58:47;;;;;;;13.10;4.05;;;;;;;;;;4947587;28;99763;-81
2023/10/07 04:01:17;;;;;;;8.88;3.28;;;;;;;;;;4946845;28;99224;-81
2023/10/07 04:03:49;;;;;;;11.05;3.53;;;;;;;;;;4947427;28;99095;-81
2023/10/07 04:06:17;;;;;;;10.52;3.30;;;;;;;;;;4947382;28;99681;-81
2023/10/07 04:08:45;;;;;;;14.07;4.20;;;;;;;;;;4945344;28;102020;-82
2023/10/07 04:11:13;;;;;;;14.23;3.83;;;;;;;;;;4950932;28;99005;-82
2023/10/07 04:13:40;;;;;;;11.02;3.63;;;;;;;;;;4947193;28;104641;-82
2023/10/07 04:16:22;;;;;;;12.10;3.92;;;;;;;;;;4946891;28;98518;-82
2023/10/07 04:18:53;;;;;;;12.25;3.97;;;;;;;;;;4947429;28;99184;-81
2023/10/07 04:21:24;;;;;;;13.70;4.57;;;;;;;;;;4940827;28;102751;-81
2023/10/07 04:23:51;;;;;;;9.85;3.92;;;;;;;;;;4949049;28;98561;-81
2023/10/07 04:26:20;;;;;;;11.50;4.00;;;;;;;;;;4943815;28;101917;-82
2023/10/07 04:28:48;;;;;;;13.00;4.05;;;;;;;;;;4934677;28;99400;-82
2023/10/07 04:31:15;;;;;;;12.20;4.05;;;;;;;;;;4947721;28;98556;-82
2023/10/07 04:33:53;;;;;;;11.68;4.07;;;;;;;;;;4949990;28;98502;-81
2023/10/07 04:39:18;;;;;;;11.60;3.47;;;;;;;;;;4934846;28;102056;-82
2023/10/07 04:41:56;;;;;;;11.15;3.90;;;;;;;;;;4936176;28;106202;-82
2023/10/07 04:50:02;;;;;;;13.30;4.70;;;;;;;;;;4944358;28;102267;-82
2023/10/07 04:52:30;;;;;;;14.38;4.38;;;;;;;;;;4949704;28;98845;-80
2023/10/07 04:54:58;;;;;;;13.93;3.95;;;;;;;;;;4947520;28;98816;-80
2023/10/07 05:00:31;;;;;;;11.02;3.95;;;;;;;;;;4947277;28;99400;-83
2023/10/07 05:02:58;;;;;;;12.57;4.00;;;;;;;;;;4947678;28;99144;-83
2023/10/07 05:05:28;;;;;;;15.13;4.30;;;;;;;;;;4949497;28;97811;-82
2023/10/07 05:08:08;;;;;;;10.70;3.42;;;;;;;;;;4948190;28;98620;-83
2023/10/07 05:10:38;;;;;;;12.10;3.90;;;;;;;;;;4945004;28;101022;-81
2023/10/07 05:13:08;;;;;;;13.57;3.95;;;;;;;;;;4946180;28;99314;-82
2023/10/07 05:15:41;;;;;;;15.38;4.20;;;;;;;;;;4946969;28;100039;-82
2023/10/07 05:18:12;;;;;;;13.43;3.92;;;;;;;;;;4948890;28;99370;-82
2023/10/07 05:20:41;;;;;;;13.07;4.00;;;;;;;;;;4946946;28;100190;-84
2023/10/07 05:23:14;;;;;;;10.25;3.38;;;;;;;;;;4948133;28;100443;-82
2023/10/07 05:25:50;;;;;;;11.60;3.40;;;;;;;;;;4947288;28;99282;-82
2023/10/07 05:28:21;;;;;;;13.70;4.28;;;;;;;;;;4959339;28;106593;-82
2023/10/07 05:30:52;;;;;;;14.65;4.30;;;;;;;;;;4938257;28;99347;-82
2023/10/07 05:33:22;;;;;;;12.43;3.55;;;;;;;;;;4945959;28;98556;-81
2023/10/07 05:35:51;;;;;;;11.10;3.70;;;;;;;;;;4948133;28;100169;-81
2023/10/07 05:38:17;;;;;;;16.05;4.25;;;;;;;;;;4946243;28;104699;-82
2023/10/07 05:40:46;;;;;;;9.45;3.63;;;;;;;;;;4950296;28;98617;-82
2023/10/07 05:43:13;;;;;;;13.48;4.32;;;;;;;;;;4947513;28;99003;-81
2023/10/07 05:45:40;;;;;;;10.90;3.22;;;;;;;;;;4946802;28;98776;-81
2023/10/07 05:48:10;;;;;;;11.77;3.60;;;;;;;;;;4945776;28;99371;-81
2023/10/07 05:50:38;;;;;;;12.07;3.55;;;;;;;;;;4945205;28;99828;-81
2023/10/07 05:53:05;;;;;;;11.40;3.20;;;;;;;;;;4960549;28;100490;-82
2023/10/07 05:55:36;;;;;;;11.82;3.30;;;;;;;;;;4946809;28;99269;-80
2023/10/07 05:58:04;;;;;;;12.90;4.20;;;;;;;;;;4944413;28;98763;-81
2023/10/07 06:00:36;;;;;;;13.07;3.80;;;;;;;;;;4937178;28;98594;-80
2023/10/07 06:03:06;;;;;;;13.88;4.22;;;;;;;;;;4937969;28;100101;-81
2023/10/07 06:05:33;;;;;;;14.23;3.55;;;;;;;;;;4931150;28;99293;-81
2023/10/07 06:08:00;;;;;;;11.80;4.13;;;;;;;;;;4929114;28;100874;-80
2023/10/07 06:10:27;;;;;;;13.15;3.90;;;;;;;;;;4932225;28;98622;-81
2023/10/07 06:12:54;;;;;;;10.93;3.63;;;;;;;;;;4949433;28;98561;-83
2023/10/07 06:15:23;;;;;;;12.18;3.75;;;;;;;;;;4944253;28;98904;-80
2023/10/07 06:17:50;;;;;;;14.02;4.65;;;;;;;;;;4983214;28;99125;-82
2023/10/07 06:20:18;;;;;;;13.52;4.03;;;;;;;;;;4956732;28;98027;-83
2023/10/07 06:22:48;;;;;;;14.02;4.57;;;;;;;;;;4962741;28;98616;-83
2023/10/07 06:25:15;;;;;;;14.07;5.18;;;;;;;;;;4976020;28;98564;-82
2023/10/07 06:27:45;;;;;;;12.93;4.50;;;;;;;;;;4947949;28;99505;-82
2023/10/07 06:30:16;;;;;;;16.65;5.50;;;;;;;;;;4952794;28;98851;-82
2023/10/07 06:32:46;;;;;;;15.75;4.80;;;;;;;;;;4957603;28;98817;-82
2023/10/07 06:35:21;;;;;;;14.52;5.28;;;;;;;;;;4956369;28;98873;-82
2023/10/07 06:37:50;;;;;;;13.20;4.90;;;;;;;;;;4951000;28;99129;-82
2023/10/07 06:40:28;;;;;;;15.80;5.65;;;;;;;;;;4950732;28;98864;-80
2023/10/07 06:42:58;;;;;;;17.58;6.13;;;;;;;;;;4948082;28;99021;-81
2023/10/07 06:45:36;;;;;;;12.88;5.15;;;;;;;;;;4950563;28;99117;-82
2023/10/07 06:48:05;;;;;;;16.25;5.25;;;;;;;;;;4954754;28;99134;-80
2023/10/07 06:50:33;;;;;;;15.57;5.38;;;;;;;;;;4943652;28;99149;-80
2023/10/07 06:52:59;;;;;;;17.40;5.90;;;;;;;;;;4934702;28;99427;-79
2023/10/07 06:55:28;;;;;;;17.50;6.00;;;;;;;;;;4942614;28;100057;-79
2023/10/07 06:57:57;;;;;;;16.10;5.30;;;;;;;;;;4947563;28;99254;-77
2023/10/07 07:00:25;;;;;;;18.98;6.32;;;;;;;;;;4948876;28;98532;-80
2023/10/07 07:02:59;;;;;;;13.30;4.72;;;;;;;;;;4948175;28;98979;-81
2023/10/07 07:05:26;;;;;;;18.20;6.20;;;;;;;;;;4948412;28;99158;-81
2023/10/07 07:07:53;;;;;;;22.30;6.35;;;;;;;;;;4947379;28;98637;-80
2023/10/07 07:10:27;;;;;;;16.95;5.88;;;;;;;;;;4952555;28;98898;-81
2023/10/07 07:12:59;;;;;;;19.45;5.72;;;;;;;;;;4946181;28;98605;-82
2023/10/07 07:15:28;;;;;;;14.63;4.30;;;;;;;;;;4948944;28;98925;-81
2023/10/07 07:23:24;;;;;;;21.35;6.43;;;;;;;;;;4955915;28;99011;-79
2023/10/07 07:26:03;;;;;;;11.60;3.95;;;;;;;;;;4959777;28;98523;-82
2023/10/07 07:28:30;;;;;;;15.45;4.35;;;;;;;;;;4948284;28;99327;-81
2023/10/07 07:31:00;;;;;;;10.05;3.60;;;;;;;;;;4947937;28;98924;-82
2023/10/07 07:33:34;;;;;;;12.13;3.30;;;;;;;;;;4948671;28;99239;-82
2023/10/07 07:36:07;;;;;;;8.55;3.25;;;;;;;;;;4947791;28;99347;-81
2023/10/07 07:38:47;;;;;;;11.18;3.17;;;;;;;;;;4933212;28;99168;-82
2023/10/07 07:43:59;;;;;;;9.77;2.88;;;;;;;;;;4915424;28;99567;-83
2023/10/07 07:46:26;;;;;;;12.05;3.22;;;;;;;;;;4928720;28;99354;-80
2023/10/07 07:48:54;;;;;;;14.10;3.53;;;;;;;;;;4928659;28;98548;-82
2023/10/07 07:51:24;;;;;;;10.55;3.25;;;;;;;;;;4928606;28;99234;-81
2023/10/07 07:53:51;;;;;;;11.80;3.20;;;;;;;;;;4949870;28;99412;-81
2023/10/07 07:56:19;;;;;;;11.27;3.08;;;;;;;;;;4945997;28;98841;-82
2023/10/07 07:58:47;;;;;;;10.38;3.63;;;;;;;;;;4941871;28;99891;-80
2023/10/07 08:01:22;;;;;;;11.10;3.50;;;;;;;;;;4946204;28;97842;-82
2023/10/07 08:03:48;;;;;;;9.23;3.20;;;;;;;;;;4948524;28;98406;-83
2023/10/07 08:06:19;;;;;;;8.77;3.17;;;;;;;;;;4947339;28;105263;-83
2023/10/07 08:08:47;;;;;;;10.43;3.10;;;;;;;;;;4947826;28;100037;-81
2023/10/07 08:11:19;;;;;;;10.38;3.35;;;;;;;;;;4939470;28;99692;-81
2023/10/07 08:13:46;;;;;;;11.10;3.58;;;;;;;;;;4948778;28;99476;-81
2023/10/07 08:16:18;;;;;;;9.13;3.15;;;;;;;;;;4953545;28;99079;-81
2023/10/07 08:18:46;;;;;;;10.57;2.92;;;;;;;;;;4945938;28;106037;-82
2023/10/07 08:21:13;;;;;;;8.73;3.50;;;;;;;;;;4961557;28;98876;-82
2023/10/07 08:23:40;;;;;;;8.45;3.05;;;;;;;;;;4943997;28;98750;-81
2023/10/07 08:26:10;;;;;;;8.23;3.30;;;;;;;;;;4945756;28;98391;-81
2023/10/07 08:28:58;;;;;;;8.27;2.90;;;;;;;;;;4945412;28;98854;-82
2023/10/07 08:31:38;;;;;;;9.30;3.30;;;;;;;;;;4955164;28;99221;-82
2023/10/07 08:36:42;;;;;;;8.40;2.90;;;;;;;;;;4954668;28;99641;-82
2023/10/07 08:39:09;;;;;;;8.98;3.00;;;;;;;;;;4950403;28;98861;-82
2023/10/07 08:41:37;;;;;;;7.55;2.55;;;;;;;;;;4947622;28;99256;-82
2023/10/07 08:44:15;;;;;;;7.40;2.55;;;;;;;;;;4946574;28;98519;-81
2023/10/07 08:46:48;;;;;;;6.53;2.58;;;;;;;;;;4946175;28;99112;-81
2023/10/07 08:49:24;;;;;;;7.57;2.60;;;;;;;;;;4947331;28;98507;-82
2023/10/07 08:51:52;;;;;;;8.77;2.80;;;;;;;;;;4945358;28;98894;-83
2023/10/07 08:54:26;;;;;;;6.80;2.40;;;;;;;;;;4946187;28;99700;-81
2023/10/07 08:56:54;;;;;;;7.63;2.20;;;;;;;;;;4946610;28;99006;-80
2023/10/07 08:59:22;;;;;;;7.28;2.35;;;;;;;;;;4945240;28;99699;-80
2023/10/07 09:01:57;;;;;;;6.93;2.70;;;;;;;;;;4948906;28;98554;-81
2023/10/07 09:04:25;;;;;;;6.88;2.25;;;;;;;;;;4943927;28;103889;-81
2023/10/07 09:06:52;;;;;;;8.23;2.45;;;;;;;;;;4938800;28;99239;-80
2023/10/07 09:09:49;;;;;;;8.60;2.58;;;;;;;;;;4945499;28;99122;-81
2023/10/07 09:12:18;;;;;;;7.35;2.60;;;;;;;;;;4943180;28;106373;-81
2023/10/07 09:15:12;;;;;;;7.53;2.55;;;;;;;;;;4940917;28;99709;-82
2023/10/07 09:17:35;;;;;;;9.13;2.55;;;;;;;;;;4947441;28;98563;-81
2023/10/07 09:20:02;;;;;;;8.23;2.45;;;;;;;;;;4939634;28;99767;-81
2023/10/07 09:22:36;;;;;;;7.57;2.47;;;;;;;;;;4959241;28;100746;-81
2023/10/07 09:25:16;;;;;;;;;;;;;;;;;;4943149;28;99467;-81
2023/10/07 09:27:56;;;;;;;8.27;2.30;;;;;;;;;;4931825;28;120415;-81
2023/10/07 09:30:35;;;;;;;7.47;2.40;;;;;;;;;;4917988;28;98550;-81
2023/10/07 09:33:21;;;;;;;7.82;2.28;;;;;;;;;;4926287;28;98848;-82
2023/10/07 09:36:22;;;;;;;6.15;1.88;;;;;;;;;;4939601;28;100597;-81
2023/10/07 09:38:43;;;;;;;6.90;2.10;;;;;;;;;;4925421;28;98582;-81
2023/10/07 09:41:23;;;;;;;6.13;2.30;;;;;;;;;;4913493;28;98803;-82
2023/10/07 09:43:57;;;;;;;5.97;2.10;;;;;;;;;;4929304;28;98411;-81
2023/10/07 09:46:34;;;;;;;6.47;2.40;;;;;;;;;;4929324;28;98699;-81
2023/10/07 09:49:06;;;;;;;5.28;2.10;;;;;;;;;;4924782;28;99435;-82
2023/10/07 09:51:44;;;;;;;8.20;2.28;;;;;;;;;;4922762;28;99670;-83
2023/10/07 09:54:15;;;;;;;7.95;2.17;;;;;;;;;;4922976;28;100683;-81
2023/10/07 09:57:06;;;;;;;5.88;2.00;;;;;;;;;;4923895;28;99701;-81
2023/10/07 09:59:40;;;;;;;6.72;2.00;;;;;;;;;;4921654;28;98815;-82
2023/10/07 10:02:16;;;;;;;;;;;;;;;;;;4922696;28;99409;-82
2023/10/07 10:05:00;;;;;;;6.18;2.33;;;;;;;;;;4924518;28;99076;-82
2023/10/07 10:07:32;;;;;;;5.63;1.85;;;;;;;;;;4922555;28;98949;-82
2023/10/07 10:10:12;;;;;;;7.38;2.08;;;;;;;;;;4928034;28;98656;-81
2023/10/07 10:12:56;;;;;;;7.50;2.42;;;;;;;;;;4912349;28;98907;-82
2023/10/07 10:18:05;;;;;;;5.32;2.00;;;;;;;;;;4921095;28;103033;-82
2023/10/07 10:20:44;;;;;;;5.32;1.90;;;;;;;;;;4924183;28;99154;-83
2023/10/07 10:23:19;;;;;;;8.27;2.25;;;;;;;;;;4916404;28;100596;-83
2023/10/07 10:25:50;;;;;;;4.97;2.00;;;;;;;;;;4911463;28;101164;-82
2023/10/07 10:28:21;;;;;;;8.48;2.08;;;;;;;;;;4942687;28;99037;-81
2023/10/07 10:30:53;;;;;;;6.88;2.28;;;;;;;;;;4938247;28;98950;-83
2023/10/07 10:33:20;;;;;;;5.95;1.80;;;;;;;;;;4947467;28;100489;-82
2023/10/07 10:35:57;;;;;;;4.80;1.70;;;;;;;;;;4944816;28;102041;-81
2023/10/07 10:38:41;;;;;;;6.47;1.80;;;;;;;;;;4951650;28;106957;-83
2023/10/07 10:41:10;;;;;;;5.72;1.98;;;;;;;;;;4945125;28;98498;-83
2023/10/07 10:43:37;;;;;;;5.47;1.85;;;;;;;;;;4939559;28;101400;-82
2023/10/07 10:46:07;;;;;;;7.63;2.10;;;;;;;;;;4956737;28;99270;-82
2023/10/07 10:48:35;;;;;;;8.25;2.08;;;;;;;;;;4943842;28;98997;-83
2023/10/07 10:51:08;;;;;;;5.05;1.70;;;;;;;;;;4945613;28;99255;-83
2023/10/07 10:53:35;;;;;;;5.10;1.83;;;;;;;;;;4934219;28;99054;-83
2023/10/07 10:56:03;;;;;;;6.30;1.88;;;;;;;;;;4956249;28;98935;-82
2023/10/07 10:58:30;;;;;;;;;;;;;;;;;;4969214;28;98851;-82
2023/10/07 11:00:56;;;;;;;4.47;1.70;;;;;;;;;;4951204;28;98485;-82
2023/10/07 11:03:23;;;;;;;6.57;2.20;;;;;;;;;;4963383;28;100854;-82
2023/10/07 11:05:50;;;;;;;7.25;2.20;;;;;;;;;;4945721;28;99713;-81
2023/10/07 11:08:22;;;;;;;7.20;2.00;;;;;;;;;;4950351;28;100193;-81
2023/10/07 11:10:51;;;;;;;5.78;2.03;;;;;;;;;;4943990;28;100066;-82
2023/10/07 11:13:18;;;;;;;7.20;2.08;;;;;;;;;;4944943;28;99312;-83
2023/10/07 11:15:58;;;;;;;4.80;1.73;;;;;;;;;;4958780;28;98571;-82
2023/10/07 11:18:25;;;;;;;5.63;1.77;;;;;;;;;;4931106;28;103287;-82
2023/10/07 11:20:54;;;;;;;5.72;2.20;;;;;;;;;;4942237;28;98605;-82
2023/10/07 11:23:21;;;;;;;5.55;1.70;;;;;;;;;;4939135;28;101537;-83
2023/10/07 11:25:50;;;;;;;5.22;1.80;;;;;;;;;;4942250;28;98500;-82
2023/10/07 11:28:22;;;;;;;6.35;2.00;;;;;;;;;;4943272;28;98616;-82
2023/10/07 11:30:49;;;;;;;4.97;1.77;;;;;;;;;;4942448;28;99041;-83
2023/10/07 11:33:16;;;;;;;5.68;1.90;;;;;;;;;;4946587;28;100009;-82
2023/10/07 11:35:46;;;;;;;5.70;1.80;;;;;;;;;;4934090;28;98838;-83
2023/10/07 11:38:15;;;;;;;6.32;2.00;;;;;;;;;;4957337;28;99061;-82
2023/10/07 11:40:42;;;;;;;5.55;1.80;;;;;;;;;;4960629;28;98561;-82
2023/10/07 11:43:09;;;;;;;7.30;2.00;;;;;;;;;;4935006;28;99083;-82
2023/10/07 11:45:39;;;;;;;6.43;2.10;;;;;;;;;;4947973;28;99470;-83
2023/10/07 11:48:08;;;;;;;4.65;1.90;;;;;;;;;;4947026;28;98809;-81
2023/10/07 11:50:35;;;;;;;6.13;1.80;;;;;;;;;;4943707;28;106076;-82
2023/10/07 11:53:02;;;;;;;4.75;1.77;;;;;;;;;;4945965;28;99141;-83
2023/10/07 11:55:31;;;;;;;6.72;2.30;;;;;;;;;;4936518;28;98560;-82
2023/10/07 11:58:01;;;;;;;5.80;1.80;;;;;;;;;;4945248;28;99503;-82
2023/10/07 12:00:29;;;;;;;5.45;1.88;;;;;;;;;;4949905;28;99294;-83
2023/10/07 12:02:57;;;;;;;5.15;1.80;;;;;;;;;;4946971;28;98907;-83
2023/10/07 12:05:27;;;;;;;4.57;1.77;;;;;;;;;;4945852;28;100603;-83
2023/10/07 12:07:55;;;;;;;5.90;1.80;;;;;;;;;;4947241;28;98477;-82
2023/10/07 12:10:22;;;;;;;4.93;1.70;;;;;;;;;;4948466;28;99887;-83
2023/10/07 12:12:52;;;;;;;5.95;1.80;;;;;;;;;;4947496;28;99420;-83
2023/10/07 12:15:21;;;;;;;4.90;1.70;;;;;;;;;;4947085;28;98979;-82
2023/10/07 12:17:50;;;;;;;5.32;1.80;;;;;;;;;;4946935;28;98514;-83
2023/10/07 12:20:19;;;;;;;6.32;1.80;;;;;;;;;;4944267;28;105083;-83
2023/10/07 12:22:46;;;;;;;5.05;1.80;;;;;;;;;;4949456;28;99483;-83
2023/10/07 12:25:16;;;;;;;5.88;2.03;;;;;;;;;;4944926;28;102261;-83
2023/10/07 12:27:43;;;;;;;5.03;1.63;;;;;;;;;;4946150;28;98669;-81
2023/10/07 12:30:11;;;;;;;6.00;1.90;;;;;;;;;;4936850;28;99322;-82
2023/10/07 12:32:39;;;;;;;6.05;1.90;;;;;;;;;;4942719;28;98641;-82
2023/10/07 12:35:09;;;;;;;4.97;1.80;;;;;;;;;;4954995;28;99124;-81
2023/10/07 12:37:39;;;;;;;5.72;1.80;;;;;;;;;;4938992;28;100276;-83
2023/10/07 12:40:11;;;;;;;4.15;1.70;;;;;;;;;;4945381;28;100607;-81
2023/10/07 12:42:39;;;;;;;5.03;1.70;;;;;;;;;;4932104;28;98863;-82
2023/10/07 12:45:06;;;;;;;5.60;1.92;;;;;;;;;;4949154;28;98696;-82
2023/10/07 12:47:32;;;;;;;;;;;;;;;;;;4946347;28;99218;-82
2023/10/07 12:49:59;;;;;;;5.60;1.80;;;;;;;;;;4947587;28;99802;-83
2023/10/07 12:52:28;;;;;;;3.75;1.60;;;;;;;;;;4950516;28;99562;-83
2023/10/07 12:54:56;;;;;;;5.38;1.77;;;;;;;;;;4927585;28;100492;-83
2023/10/07 12:57:26;;;;;;;5.63;2.00;;;;;;;;;;4925667;28;101531;-84
2023/10/07 12:59:53;;;;;;;5.57;1.70;;;;;;;;;;4944799;28;99129;-80
2023/10/07 13:02:20;;;;;;;5.03;2.00;;;;;;;;;;4944826;28;99104;-82
2023/10/07 13:04:54;;;;;;;6.10;2.00;;;;;;;;;;4946891;28;98850;-83
2023/10/07 13:07:21;;;;;;;4.97;1.98;;;;;;;;;;4950145;28;99721;-82
2023/10/07 13:09:48;;;;;;;5.47;1.92;;;;;;;;;;4946098;28;98701;-83
2023/10/07 13:12:17;;;;;;;6.13;2.00;;;;;;;;;;4948754;28;100372;-83
2023/10/07 13:14:46;;;;;;;5.15;1.90;;;;;;;;;;4947616;28;98617;-83
2023/10/07 13:17:13;;;;;;;4.10;1.65;;;;;;;;;;4928076;28;99894;-82
2023/10/07 13:19:43;;;;;;;4.97;1.80;;;;;;;;;;4925029;28;99305;-83
2023/10/07 13:22:10;;;;;;;5.25;2.08;;;;;;;;;;4921309;28;99585;-82
2023/10/07 13:24:37;;;;;;;5.20;1.98;;;;;;;;;;4930538;28;98931;-82
2023/10/07 13:27:04;;;;;;;5.15;2.10;;;;;;;;;;4930933;28;98613;-82
2023/10/07 13:29:34;;;;;;;6.40;2.10;;;;;;;;;;4930660;28;98326;-82
2023/10/07 13:32:03;;;;;;;6.05;2.15;;;;;;;;;;4925936;28;99191;-82
2023/10/07 13:34:31;;;;;;;6.15;2.17;;;;;;;;;;4927554;28;99150;-82
2023/10/07 13:36:58;;;;;;;4.03;1.80;;;;;;;;;;4928408;28;101617;-82
2023/10/07 13:39:26;;;;;;;7.30;2.03;;;;;;;;;;4944743;28;99709;-82
2023/10/07 13:41:53;;;;;;;5.72;1.90;;;;;;;;;;4945643;28;98785;-81
2023/10/07 13:44:22;;;;;;;5.03;1.83;;;;;;;;;;4952387;28;100205;-82
2023/10/07 13:46:50;;;;;;;5.88;2.00;;;;;;;;;;4945562;28;99457;-81
2023/10/07 13:49:17;;;;;;;5.07;1.80;;;;;;;;;;4964101;28;98557;-82
2023/10/07 13:51:44;;;;;;;6.05;1.90;;;;;;;;;;4963619;28;98537;-81
2023/10/07 13:57:02;;;;;;;5.93;2.10;;;;;;;;;;4964630;28;98382;-80
2023/10/07 13:59:29;;;;;;;5.78;2.10;;;;;;;;;;4960365;28;100693;-82
2023/10/07 14:01:58;;;;;;;6.50;2.08;;;;;;;;;;4962646;28;99245;-81
2023/10/07 14:04:25;;;;;;;5.72;2.00;;;;;;;;;;4959531;28;98475;-81
2023/10/07 14:07:00;;;;;;;5.22;1.92;;;;;;;;;;4966122;28;101253;-82
2023/10/07 14:09:29;;;;;;;5.15;1.98;;;;;;;;;;4959733;28;98729;-82
2023/10/07 14:11:56;;;;;;;5.88;2.03;;;;;;;;;;4954290;28;98469;-81
2023/10/07 14:14:25;;;;;;;5.30;2.05;;;;;;;;;;4944906;28;98513;-81
2023/10/07 14:16:58;;;;;;;5.40;2.00;;;;;;;;;;4952200;28;98661;-81
2023/10/07 14:19:25;;;;;;;6.32;2.10;;;;;;;;;;4951716;28;98894;-81
2023/10/07 14:21:52;;;;;;;5.60;1.98;;;;;;;;;;4946949;28;98975;-80
2023/10/07 14:24:20;;;;;;;9.40;2.50;;;;;;;;;;4942974;28;98677;-81
2023/10/07 14:26:48;;;;;;;7.20;2.20;;;;;;;;;;4945098;28;99936;-82
2023/10/07 14:29:15;;;;;;;5.82;2.17;;;;;;;;;;4938548;28;98764;-82
2023/10/07 14:31:43;;;;;;;5.20;2.00;;;;;;;;;;4944975;28;99592;-83
2023/10/07 14:34:11;;;;;;;6.60;2.00;;;;;;;;;;4946812;28;99130;-81
2023/10/07 14:36:40;;;;;;;6.90;2.03;;;;;;;;;;4946110;28;98627;-82
2023/10/07 14:39:12;;;;;;;6.05;2.13;;;;;;;;;;4947188;28;99835;-82
2023/10/07 14:41:41;;;;;;;7.22;2.30;;;;;;;;;;4945377;28;98566;-82
2023/10/07 14:44:08;;;;;;;7.75;2.30;;;;;;;;;;4959139;28;99462;-81
2023/10/07 14:46:42;;;;;;;6.55;2.22;;;;;;;;;;4944367;28;99805;-80
2023/10/07 14:49:09;;;;;;;6.53;2.35;;;;;;;;;;4942335;28;98836;-81
2023/10/07 14:51:36;;;;;;;6.88;2.05;;;;;;;;;;4945600;28;99784;-80
2023/10/07 14:54:03;;;;;;;6.93;2.20;;;;;;;;;;4938224;28;98989;-79
2023/10/07 14:56:30;;;;;;;7.25;2.20;;;;;;;;;;4947219;28;98831;-80
2023/10/07 14:58:56;;;;;;;6.50;2.47;;;;;;;;;;4942576;28;100405;-80
2023/10/07 15:01:23;;;;;;;5.78;2.10;;;;;;;;;;4941559;28;98962;-80
2023/10/07 15:03:50;;;;;;;6.25;2.45;;;;;;;;;;4943254;28;99416;-80
2023/10/07 15:06:17;;;;;;;7.28;2.30;;;;;;;;;;4946780;28;103576;-81
2023/10/07 15:08:48;;;;;;;7.45;2.65;;;;;;;;;;4947880;28;97904;-81
2023/10/07 15:11:17;;;;;;;6.35;2.15;;;;;;;;;;4948379;28;105494;-81
2023/10/07 15:13:43;;;;;;;6.70;2.40;;;;;;;;;;4946925;28;99149;-81
2023/10/07 15:16:13;;;;;;;7.38;2.17;;;;;;;;;;4945958;28;99750;-80
2023/10/07 15:18:41;;;;;;;6.05;2.17;;;;;;;;;;4943782;28;99454;-80
2023/10/07 15:21:09;;;;;;;8.07;2.40;;;;;;;;;;4942043;28;99050;-81
2023/10/07 15:23:40;;;;;;;6.47;2.28;;;;;;;;;;4925544;28;101784;-79
2023/10/07 15:26:10;;;;;;;6.13;2.20;;;;;;;;;;4946913;28;100500;-80
2023/10/07 15:28:40;;;;;;;8.05;2.58;;;;;;;;;;4929078;28;98664;-79
2023/10/07 15:31:07;;;;;;;7.22;2.20;;;;;;;;;;4932591;28;98930;-80
2023/10/07 15:33:51;;;;;;;8.48;2.63;;;;;;;;;;4942799;28;99100;-80
2023/10/07 15:36:17;;;;;;;9.13;2.80;;;;;;;;;;4940085;28;98658;-79
2023/10/07 15:38:48;;;;;;;7.05;2.60;;;;;;;;;;4953163;28;100172;-81
2023/10/07 15:41:15;;;;;;;7.72;3.20;;;;;;;;;;4949838;28;99983;-80